sim
Sign-in with your pilot id or email,
or register
Callsign
Passwort

Schedule Details

Flight Number: DLH1288 (1)
Departure: Frankfurt Airport (EDDF) at 09:15
Arrival: Thessaloniki International Airport (LGTS) at 11:40
Route: Lufthansa Passenger Schedule. Enter filed route here before submitting Pirep.

Weather Information
Getting current METAR information for EDDF 230650Z 05006KT 360V080 CAVOK 17/11 Q1026 NOSIG
Getting current METAR information for LGTS 230650Z 28004KT CAVOK 29/19 Q1020 NOSIG

Schedule Frequency

Route Map